Time;durP1;ratioP1;P1;durP2;ratioP2;P2;SDS_P1;SDS_P2;PMS_P1;PMS_P2;Temp;Humidity;BMP_temperature;BMP_pressure;BME280_temperature;BME280_humidity;BME280_pressure;Samples;Min_cycle;Max_cycle;Signal;HPM_P1;HPM_P2
2021/12/08 00:01:33;;;;;;;10.37;9.00;;;2.00;99.90;;;2.64;100.00;99178.69;5091898;28;20290;-68
2021/12/08 00:04:01;;;;;;;12.87;8.77;;;2.00;99.90;;;2.67;100.00;99171.16;5088161;28;20271;-67
2021/12/08 00:06:29;;;;;;;11.10;9.23;;;2.00;99.90;;;2.55;100.00;99172.69;5071760;28;20205;-68
2021/12/08 00:09:05;;;;;;;10.17;8.63;;;2.00;99.90;;;2.52;100.00;99167.72;5084637;28;20656;-67
2021/12/08 00:14:35;;;;;;;11.70;9.63;;;2.00;99.90;;;2.90;100.00;99144.28;5048870;28;20305;-67
2021/12/08 00:17:03;;;;;;;11.50;9.40;;;2.00;99.90;;;2.83;100.00;99138.94;5048524;28;20242;-68
2021/12/08 00:19:32;;;;;;;9.97;8.70;;;2.00;99.90;;;2.65;100.00;99151.91;5068114;28;20230;-67
2021/12/08 00:22:00;;;;;;;10.47;8.70;;;2.00;99.90;;;2.76;100.00;99143.38;5091762;28;20292;-67
2021/12/08 00:24:28;;;;;;;11.10;9.10;;;2.00;99.90;;;2.73;100.00;99143.78;5091305;28;20290;-66
2021/12/08 00:26:56;;;;;;;11.53;8.83;;;2.00;99.90;;;2.53;100.00;99142.81;5091787;28;20232;-68
2021/12/08 00:29:24;;;;;;;11.77;9.17;;;2.00;99.90;;;2.59;100.00;99130.59;5094996;28;20807;-69
2021/12/08 00:31:53;;;;;;;10.23;8.67;;;1.90;99.90;;;2.82;100.00;99131.97;5095791;28;20295;-69
2021/12/08 00:34:21;;;;;;;11.73;9.03;;;2.00;99.90;;;2.63;100.00;99129.19;5095462;28;20230;-67
2021/12/08 00:36:54;;;;;;;10.23;8.80;;;2.00;99.90;;;2.58;100.00;99116.47;5095823;28;20245;-67
2021/12/08 00:39:23;;;;;;;13.43;9.57;;;1.90;99.90;;;2.56;100.00;99113.19;5094882;28;20739;-66
2021/12/08 00:41:51;;;;;;;12.77;9.80;;;1.90;99.90;;;2.63;100.00;99113.22;5095241;28;20319;-69
2021/12/08 00:44:20;;;;;;;13.20;9.87;;;1.90;99.90;;;2.75;100.00;99104.53;5095032;28;20204;-68
2021/12/08 00:46:48;;;;;;;12.97;9.63;;;2.00;99.90;;;2.77;100.00;99097.19;5095116;28;20639;-67
2021/12/08 00:49:17;;;;;;;12.47;9.63;;;2.00;99.90;;;2.60;100.00;99087.88;5094997;28;20295;-67
2021/12/08 00:51:45;;;;;;;12.50;10.03;;;2.00;99.90;;;2.73;100.00;99097.75;5095277;28;20311;-67
2021/12/08 00:54:13;;;;;;;15.53;10.53;;;1.90;99.90;;;2.58;100.00;99083.75;5095261;28;20196;-68
2021/12/08 00:56:41;;;;;;;15.43;10.70;;;1.90;99.90;;;2.62;100.00;99071.72;5095220;28;20287;-67
2021/12/08 00:59:09;;;;;;;16.50;11.33;;;1.90;99.90;;;2.52;100.00;99069.41;5095077;28;20307;-68
2021/12/08 01:01:38;;;;;;;16.83;11.20;;;1.90;99.90;;;2.67;100.00;99064.81;5095244;28;20288;-67
2021/12/08 01:04:07;;;;;;;16.90;11.83;;;1.90;99.90;;;2.60;100.00;99063.13;5090767;28;20718;-68
2021/12/08 01:06:36;;;;;;;17.63;11.23;;;1.90;99.90;;;2.69;100.00;99057.44;5074932;28;20615;-67
2021/12/08 01:09:05;;;;;;;18.03;11.30;;;1.90;99.90;;;2.73;100.00;99045.41;5074269;28;20247;-67
2021/12/08 01:11:33;;;;;;;18.67;11.57;;;2.00;99.90;;;2.69;100.00;99046.81;5074825;28;20286;-68
2021/12/08 01:14:01;;;;;;;20.53;11.80;;;2.00;99.90;;;2.87;100.00;99039.16;5074542;28;20286;-67
2021/12/08 01:16:29;;;;;;;19.83;12.50;;;2.00;99.90;;;2.72;100.00;99038.47;5074530;28;20240;-67
2021/12/08 01:18:57;;;;;;;18.50;11.83;;;2.00;99.90;;;2.78;100.00;99031.50;5074327;28;20224;-68
2021/12/08 01:21:25;;;;;;;19.33;12.20;;;1.90;99.90;;;2.60;100.00;99024.09;5074458;28;20232;-68
2021/12/08 01:23:54;;;;;;;17.67;11.70;;;2.00;99.90;;;2.62;100.00;99022.06;5074057;28;20749;-67
2021/12/08 01:26:23;;;;;;;19.97;12.60;;;1.90;99.90;;;2.71;100.00;99018.19;5074378;28;20203;-68
2021/12/08 01:28:52;;;;;;;19.13;12.50;;;1.90;99.90;;;2.49;100.00;99009.50;5074429;28;20264;-68
2021/12/08 01:31:20;;;;;;;18.17;12.30;;;1.80;99.90;;;2.51;100.00;98998.69;5073961;28;20700;-68
2021/12/08 01:33:48;;;;;;;22.17;13.00;;;1.80;99.90;;;2.55;100.00;98997.28;5074249;28;20204;-67
2021/12/08 01:36:16;;;;;;;18.83;13.00;;;1.90;99.90;;;2.57;100.00;98997.91;5073655;28;20633;-68
2021/12/08 01:38:46;;;;;;;18.70;12.30;;;1.80;99.90;;;2.36;100.00;98982.03;5084880;28;20307;-67
2021/12/08 01:41:15;;;;;;;19.17;12.63;;;1.80;99.90;;;2.55;100.00;98970.69;5093855;28;20322;-67
2021/12/08 01:45:57;;;;;;;20.53;13.20;;;1.80;99.90;;;2.45;100.00;98965.72;5094487;28;20281;-67
2021/12/08 01:46:32;;;;;;;19.63;13.03;;;1.80;99.90;;;2.62;100.00;98952.13;5094019;28;20283;-68
2021/12/08 01:49:02;;;;;;;19.63;13.17;;;1.80;99.90;;;2.55;100.00;98941.47;5094174;28;20206;-68
2021/12/08 01:51:31;;;;;;;21.67;13.43;;;1.80;99.90;;;2.54;100.00;98939.00;5093633;28;20294;-68
2021/12/08 01:54:02;;;;;;;18.70;12.40;;;1.80;99.90;;;2.67;100.00;98939.88;5093475;28;20276;-68
2021/12/08 01:56:34;;;;;;;20.20;12.03;;;1.80;99.90;;;2.85;100.00;98945.44;5090447;28;20276;-67
2021/12/08 01:59:07;;;;;;;18.50;11.70;;;1.90;99.90;;;2.69;100.00;98945.00;5073742;28;20207;-68
2021/12/08 02:01:38;;;;;;;18.27;11.67;;;1.90;99.90;;;2.53;100.00;98932.03;5087881;28;20633;-68
2021/12/08 02:04:07;;;;;;;19.63;12.07;;;1.90;99.90;;;2.38;100.00;98940.16;5093688;28;20580;-69
2021/12/08 02:06:38;;;;;;;18.70;10.83;;;1.80;99.90;;;2.40;100.00;98946.09;5093422;28;20200;-68
2021/12/08 02:09:10;;;;;;;18.23;11.60;;;1.80;99.90;;;2.35;100.00;98956.50;5093391;28;20219;-68
2021/12/08 02:11:45;;;;;;;16.50;11.60;;;1.70;99.90;;;2.59;100.00;98961.28;5093662;28;20246;-67
2021/12/08 02:14:13;;;;;;;16.60;10.77;;;1.80;99.90;;;2.48;100.00;98968.03;5093802;28;20237;-68
2021/12/08 02:16:41;;;;;;;17.00;11.10;;;1.80;99.90;;;2.50;100.00;98965.16;5093333;28;20287;-68
2021/12/08 02:19:09;;;;;;;18.07;11.73;;;1.80;99.90;;;2.39;100.00;98971.84;5093450;28;20216;-67
2021/12/08 02:21:42;;;;;;;16.40;10.97;;;1.70;99.90;;;2.32;100.00;98964.84;5093398;28;20200;-67
2021/12/08 02:24:13;;;;;;;16.83;11.73;;;1.70;99.90;;;2.30;100.00;98959.72;5093537;28;20196;-68
2021/12/08 02:26:47;;;;;;;16.90;11.03;;;1.70;99.90;;;2.11;100.00;98963.13;5093396;28;20219;-66
2021/12/08 02:29:23;;;;;;;17.83;11.97;;;1.60;99.90;;;2.07;100.00;98956.53;5093483;28;20291;-67
2021/12/08 02:31:57;;;;;;;19.60;11.40;;;1.50;99.90;;;2.21;100.00;98955.63;5093236;28;20642;-68
2021/12/08 02:48:18;;;;;;;15.60;11.37;;;1.30;99.90;;;1.81;100.00;98955.56;5073183;28;20185;-67
2021/12/08 02:50:47;;;;;;;18.97;12.40;;;1.30;99.90;;;1.68;100.00;98964.25;5090636;28;20813;-67
2021/12/08 02:53:17;;;;;;;19.47;11.93;;;1.20;99.90;;;1.89;100.00;98958.91;5092834;28;20665;-67
2021/12/08 02:55:46;;;;;;;18.17;12.23;;;1.20;99.90;;;2.10;100.00;98961.47;5092969;28;20191;-68
2021/12/08 02:58:16;;;;;;;17.80;12.03;;;1.30;99.90;;;1.95;100.00;98951.97;5093120;28;20203;-68
2021/12/08 03:00:49;;;;;;;21.17;12.80;;;1.30;99.90;;;1.90;100.00;98951.72;5092976;28;20251;-67
2021/12/08 03:03:17;;;;;;;23.53;13.63;;;1.30;99.90;;;1.82;100.00;98957.19;5092853;28;20203;-67
2021/12/08 03:05:46;;;;;;;21.03;12.20;;;1.30;99.90;;;1.93;100.00;98952.16;5092687;28;20231;-67
2021/12/08 03:08:16;;;;;;;19.93;12.70;;;1.30;99.90;;;1.81;100.00;98945.75;5092783;28;20198;-67
2021/12/08 03:10:51;;;;;;;18.90;12.17;;;1.30;99.90;;;1.83;100.00;98950.84;5092742;28;20212;-67
2021/12/08 03:13:20;;;;;;;22.47;13.77;;;1.30;99.90;;;1.83;100.00;98941.06;5092725;28;20195;-67
2021/12/08 03:15:48;;;;;;;20.80;12.43;;;1.20;99.90;;;1.86;100.00;98939.88;5092386;28;20681;-67
2021/12/08 03:18:16;;;;;;;19.80;12.87;;;1.20;99.90;;;2.03;100.00;98928.72;5092945;28;20272;-68
2021/12/08 03:20:45;;;;;;;21.70;13.27;;;1.20;99.90;;;2.05;100.00;98933.84;5092550;28;20219;-68
2021/12/08 03:23:22;;;;;;;20.70;12.60;;;1.30;99.90;;;1.91;100.00;98926.84;5092256;28;20287;-67
2021/12/08 03:25:55;;;;;;;20.87;12.77;;;1.30;99.90;;;1.99;100.00;98926.69;5092189;28;20188;-67
2021/12/08 03:28:29;;;;;;;21.57;13.30;;;1.30;99.90;;;1.87;100.00;98921.09;5092322;28;20184;-68
2021/12/08 03:31:02;;;;;;;22.43;13.37;;;1.20;99.90;;;1.96;100.00;98919.09;5092205;28;20192;-67
2021/12/08 03:33:31;;;;;;;20.43;12.77;;;1.30;99.90;;;1.81;100.00;98927.16;5092034;28;20206;-68
2021/12/08 03:36:00;;;;;;;24.77;13.23;;;1.20;99.90;;;1.74;100.00;98918.34;5091902;28;20235;-67
2021/12/08 03:38:31;;;;;;;24.43;14.57;;;1.20;99.90;;;1.75;100.00;98919.16;5091661;28;20223;-68
2021/12/08 03:41:03;;;;;;;21.40;13.27;;;1.20;99.90;;;1.77;100.00;98911.84;5091841;28;20232;-68
2021/12/08 03:43:31;;;;;;;22.70;14.27;;;1.10;99.90;;;1.93;100.00;98901.72;5092111;28;20185;-69
2021/12/08 03:46:01;;;;;;;21.70;12.73;;;1.20;99.90;;;2.01;100.00;98904.22;5091895;28;20206;-67
2021/12/08 03:48:38;;;;;;;20.10;12.73;;;1.20;99.90;;;1.94;100.00;98905.19;5091758;28;20220;-68
2021/12/08 03:51:07;;;;;;;22.80;13.07;;;1.20;99.90;;;2.03;100.00;98912.81;5091878;28;20416;-67
2021/12/08 03:53:36;;;;;;;21.43;13.07;;;1.20;99.90;;;1.79;100.00;98909.81;5091520;28;20204;-68
2021/12/08 03:56:06;;;;;;;24.60;14.03;;;1.20;99.90;;;1.79;100.00;98909.81;5092050;28;20184;-67
2021/12/08 03:58:35;;;;;;;22.37;13.70;;;1.20;99.90;;;1.87;100.00;98907.81;5092004;28;20200;-67
2021/12/08 04:01:07;;;;;;;22.60;13.17;;;1.20;99.90;;;1.78;100.00;98914.28;5091717;28;20224;-67
2021/12/08 04:03:39;;;;;;;21.33;13.03;;;1.10;99.90;;;1.80;100.00;98908.78;5090863;28;20639;-68
2021/12/08 04:06:25;;;;;;;21.83;12.83;;;1.20;99.90;;;1.92;100.00;98916.03;5091858;28;20232;-67
2021/12/08 04:08:56;;;;;;;23.73;13.93;;;1.20;99.90;;;1.83;100.00;98911.03;5091768;28;20188;-68
2021/12/08 04:11:26;;;;;;;21.23;12.57;;;1.10;99.90;;;1.88;100.00;98913.94;5091510;28;20227;-68
2021/12/08 04:13:59;;;;;;;22.13;14.13;;;1.20;99.90;;;1.77;100.00;98911.84;5091773;28;20204;-67
2021/12/08 04:16:33;;;;;;;23.17;13.47;;;1.10;99.90;;;1.96;100.00;98919.91;5091798;28;20216;-67
2021/12/08 04:19:04;;;;;;;19.57;13.10;;;1.20;99.90;;;1.96;100.00;98925.22;5091189;28;20194;-68
2021/12/08 04:21:34;;;;;;;24.40;13.70;;;1.20;99.90;;;1.95;100.00;98925.41;5091377;28;20758;-67
2021/12/08 04:24:06;;;;;;;22.00;12.33;;;1.30;99.90;;;2.15;100.00;98921.03;5091742;28;20291;-67
2021/12/08 04:26:43;;;;;;;22.30;13.20;;;1.30;99.90;;;2.09;100.00;98895.28;5091755;28;20548;-67
2021/12/08 04:29:14;;;;;;;21.13;12.47;;;1.40;99.90;;;2.16;100.00;98912.91;5091896;28;20742;-69
2021/12/08 04:31:44;;;;;;;19.93;12.63;;;1.40;99.90;;;2.12;100.00;98895.69;5091870;28;20267;-67
2021/12/08 04:34:19;;;;;;;22.47;13.33;;;1.40;99.90;;;2.22;100.00;98888.19;5091429;28;20566;-68
2021/12/08 04:36:51;;;;;;;18.90;12.10;;;1.40;99.90;;;2.26;100.00;98897.41;5091694;28;20635;-66
2021/12/08 04:39:29;;;;;;;21.47;12.67;;;1.50;99.90;;;2.39;100.00;98907.25;5091366;28;20231;-69
2021/12/08 04:42:03;;;;;;;19.83;12.03;;;1.50;99.90;;;2.27;100.00;98904.34;5091111;28;20590;-68
2021/12/08 04:44:38;;;;;;;19.57;11.63;;;1.60;99.90;;;2.15;100.00;98908.59;5091307;28;20179;-68
2021/12/08 04:53:25;;;;;;;19.30;11.57;;;1.50;99.90;;;2.39;100.00;98926.69;5090888;28;20666;-67
2021/12/08 05:01:45;;;;;;;18.60;11.50;;;1.70;99.90;;;2.48;100.00;98933.47;5091242;28;20243;-67
2021/12/08 05:04:33;;;;;;;19.93;11.93;;;1.70;99.90;;;2.54;100.00;98939.81;5090836;28;20737;-67
2021/12/08 05:07:18;;;;;;;20.10;11.97;;;1.70;99.90;;;2.45;100.00;98944.47;5091487;28;20321;-67
2021/12/08 05:09:49;;;;;;;18.37;11.47;;;1.80;99.90;;;2.47;100.00;98947.75;5090931;28;20279;-67
2021/12/08 05:12:23;;;;;;;17.13;11.60;;;1.70;99.90;;;2.51;100.00;98940.22;5091136;28;20216;-68
2021/12/08 05:14:56;;;;;;;19.57;11.93;;;1.80;99.90;;;2.53;100.00;98940.00;5093889;28;20587;-67
2021/12/08 05:17:31;;;;;;;16.70;11.07;;;1.80;99.90;;;2.77;100.00;98934.19;5095103;28;20220;-68
2021/12/08 05:20:07;;;;;;;19.63;10.97;;;1.90;99.90;;;2.72;100.00;98920.66;5094410;28;20620;-67
2021/12/08 05:22:42;;;;;;;17.60;11.40;;;1.90;99.90;;;2.87;100.00;98908.84;5095297;28;20296;-67
2021/12/08 05:25:15;;;;;;;16.57;10.97;;;1.90;99.90;;;2.75;100.00;98909.63;5094995;28;20642;-67
2021/12/08 05:27:51;;;;;;;21.07;11.70;;;1.90;99.90;;;2.77;100.00;98915.56;5095068;28;20185;-67
2021/12/08 05:30:25;;;;;;;17.27;10.47;;;2.00;99.90;;;2.70;100.00;98930.69;5095212;28;20282;-67
2021/12/08 05:32:54;;;;;;;18.93;11.60;;;1.90;99.90;;;2.71;100.00;98934.97;5095134;28;20279;-67
2021/12/08 05:35:24;;;;;;;17.47;11.03;;;1.90;99.90;;;2.59;100.00;98926.75;5094800;28;20290;-68
2021/12/08 05:37:53;;;;;;;18.30;11.67;;;1.90;99.90;;;2.63;100.00;98928.00;5094633;28;20228;-67
2021/12/08 05:40:28;;;;;;;18.30;11.47;;;1.90;99.90;;;2.67;100.00;98925.75;5094523;28;20200;-67
2021/12/08 05:42:58;;;;;;;17.50;11.77;;;1.90;99.90;;;2.68;100.00;98932.72;5094943;28;20234;-68
2021/12/08 05:45:26;;;;;;;17.10;11.33;;;1.90;99.90;;;2.72;100.00;98921.50;5094630;28;20300;-67
2021/12/08 05:47:57;;;;;;;19.50;11.87;;;1.90;99.90;;;2.57;100.00;98918.19;5094826;28;20307;-68
2021/12/08 05:50:33;;;;;;;16.10;10.80;;;1.90;99.90;;;2.63;100.00;98917.38;5095149;28;20550;-68
2021/12/08 05:53:03;;;;;;;19.47;11.77;;;1.90;99.90;;;2.60;100.00;98916.94;5095178;28;20597;-66
2021/12/08 05:55:33;;;;;;;20.03;12.27;;;1.90;99.90;;;2.69;100.00;98918.41;5094196;28;20249;-67
2021/12/08 05:58:05;;;;;;;19.10;12.00;;;1.90;99.90;;;2.49;100.00;98918.31;5094297;28;20204;-66
2021/12/08 06:00:39;;;;;;;20.00;12.03;;;1.80;99.90;;;2.46;100.00;98916.06;5094513;28;20275;-68
2021/12/08 06:03:08;;;;;;;19.87;12.43;;;1.80;99.90;;;2.55;100.00;98917.56;5094398;28;20191;-67
2021/12/08 06:05:37;;;;;;;18.80;12.40;;;1.80;99.90;;;2.56;100.00;98918.34;5094341;28;20204;-68
2021/12/08 06:08:06;;;;;;;21.90;12.60;;;1.80;99.90;;;2.50;100.00;98920.78;5094436;28;20719;-67
2021/12/08 06:10:38;;;;;;;21.73;13.97;;;1.80;99.90;;;2.50;100.00;98922.66;5094465;28;20311;-68
2021/12/08 06:13:12;;;;;;;23.57;13.90;;;1.80;99.90;;;2.49;100.00;98921.81;5095083;28;20271;-69
2021/12/08 06:15:44;;;;;;;22.07;13.83;;;1.80;99.90;;;2.58;100.00;98924.28;5094502;28;20711;-67
2021/12/08 06:18:13;;;;;;;24.77;13.80;;;1.80;99.90;;;2.68;100.00;98924.72;5094902;28;20187;-67
2021/12/08 06:20:42;;;;;;;24.53;14.90;;;1.80;99.90;;;2.54;100.00;98923.06;5095135;28;20288;-67
2021/12/08 06:23:11;;;;;;;23.50;14.37;;;1.80;99.90;;;2.61;100.00;98924.72;5094754;28;20243;-66
2021/12/08 06:25:40;;;;;;;22.03;13.87;;;1.80;99.90;;;2.66;100.00;98929.41;5094007;28;20635;-67
2021/12/08 06:28:10;;;;;;;21.67;13.83;;;1.90;99.90;;;2.80;100.00;98939.91;5094564;28;20196;-67
2021/12/08 06:30:46;;;;;;;23.10;13.93;;;1.90;99.90;;;2.63;100.00;98940.47;5094197;28;20291;-67
2021/12/08 06:33:16;;;;;;;24.37;14.73;;;1.90;99.90;;;2.57;100.00;98935.94;5094272;28;20275;-67
2021/12/08 06:35:50;;;;;;;25.27;14.77;;;1.90;99.90;;;2.70;100.00;98949.28;5094152;28;20217;-65
2021/12/08 06:38:20;;;;;;;25.90;14.50;;;1.90;99.90;;;2.72;100.00;98944.59;5093865;28;20202;-66
2021/12/08 06:40:56;;;;;;;20.47;13.40;;;1.90;99.90;;;2.73;100.00;98951.53;5094415;28;20223;-66
2021/12/08 06:43:30;;;;;;;26.63;14.40;;;2.00;99.90;;;2.67;100.00;98947.84;5094210;28;20208;-66
2021/12/08 06:46:02;;;;;;;24.00;13.97;;;1.90;99.90;;;2.71;100.00;98954.41;5094342;28;20230;-67
2021/12/08 06:48:35;;;;;;;24.30;14.97;;;2.00;99.90;;;2.74;100.00;98954.00;5094198;28;20188;-67
2021/12/08 06:51:10;;;;;;;23.67;14.43;;;2.00;99.90;;;2.62;100.00;98941.50;5093902;28;20203;-67
2021/12/08 06:53:39;;;;;;;25.70;14.80;;;1.90;99.90;;;2.60;100.00;98947.00;5093773;28;20313;-68
2021/12/08 06:56:14;;;;;;;21.73;14.47;;;1.90;99.90;;;2.68;100.00;98949.47;5093964;28;20235;-66
2021/12/08 06:58:48;;;;;;;23.80;14.47;;;1.90;99.90;;;2.60;100.00;98954.97;5093908;28;20646;-67
2021/12/08 07:01:28;;;;;;;22.00;14.07;;;1.90;99.90;;;2.66;100.00;98951.50;5093845;28;20192;-67
2021/12/08 07:04:11;;;;;;;22.10;15.20;;;2.00;99.90;;;2.72;100.00;98950.75;5094184;28;20275;-67
2021/12/08 07:06:59;;;;;;;21.87;13.77;;;2.00;99.90;;;2.88;100.00;98949.53;5093878;28;20211;-67
2021/12/08 07:09:36;;;;;;;27.40;14.83;;;2.10;99.90;;;2.98;100.00;98942.81;5093126;28;20187;-68
2021/12/08 07:12:14;;;;;;;22.80;14.00;;;2.10;99.90;;;3.09;100.00;98944.06;5093414;28;20225;-66
2021/12/08 07:14:52;;;;;;;20.20;13.73;;;2.20;99.90;;;3.08;100.00;98943.25;5094028;28;20181;-68
2021/12/08 07:17:27;;;;;;;22.17;13.70;;;2.30;99.90;;;3.02;100.00;98933.44;5093569;28;20188;-67
2021/12/08 07:20:14;;;;;;;21.53;13.73;;;2.20;99.90;;;3.00;100.00;98934.63;5093455;28;20835;-68
2021/12/08 07:22:49;;;;;;;24.20;14.67;;;2.30;99.90;;;2.97;100.00;98929.72;5077445;28;20219;-63
2021/12/08 07:25:20;;;;;;;21.27;13.97;;;2.30;99.90;;;2.96;100.00;98928.91;5090510;28;20220;-63
2021/12/08 07:27:48;;;;;;;24.13;14.23;;;2.20;99.90;;;3.05;100.00;98934.84;5090526;28;20223;-61
2021/12/08 07:30:25;;;;;;;21.70;13.37;;;2.30;99.90;;;3.03;100.00;98937.72;5089097;28;20207;-63
2021/12/08 07:32:55;;;;;;;22.63;13.97;;;2.30;99.90;;;3.12;100.00;98935.69;5090281;28;20205;-62
2021/12/08 07:35:36;;;;;;;24.10;14.57;;;2.30;99.90;;;3.11;100.00;98921.56;5089504;28;20712;-63
2021/12/08 07:38:07;;;;;;;23.77;14.30;;;2.30;99.90;;;3.07;100.00;98916.84;5089044;28;20207;-61
2021/12/08 07:40:48;;;;;;;21.67;14.13;;;2.30;99.90;;;3.08;100.00;98910.53;5089644;28;20223;-59
2021/12/08 07:43:22;;;;;;;21.97;13.60;;;2.30;99.90;;;3.10;100.00;98903.97;5089984;28;20255;-61
2021/12/08 07:46:02;;;;;;;20.93;13.70;;;2.30;99.90;;;3.29;100.00;98908.50;5089945;28;20263;-61
2021/12/08 07:48:40;;;;;;;21.83;13.97;;;2.40;99.90;;;3.30;100.00;98906.63;5090198;28;20213;-64
2021/12/08 07:51:13;;;;;;;21.77;13.23;;;2.40;99.90;;;3.23;100.00;98900.53;5089609;28;20184;-65
2021/12/08 07:53:43;;;;;;;22.27;13.67;;;2.40;99.90;;;3.22;100.00;98898.84;5089719;28;20271;-64
2021/12/08 07:56:15;;;;;;;22.90;14.10;;;2.50;99.90;;;3.29;100.00;98907.66;5089700;28;20243;-64
2021/12/08 07:58:49;;;;;;;21.90;13.63;;;2.50;99.90;;;3.31;100.00;98897.66;5081719;28;20736;-65
2021/12/08 08:01:24;;;;;;;22.80;14.80;;;2.50;99.90;;;3.58;100.00;98891.28;5072305;28;20275;-65
2021/12/08 08:03:53;;;;;;;20.63;14.00;;;2.60;99.90;;;3.45;100.00;98888.66;5079551;28;20308;-64
2021/12/08 08:06:30;;;;;;;17.90;12.93;;;2.60;99.90;;;3.56;100.00;98891.50;5086712;28;20567;-66
2021/12/08 08:08:58;;;;;;;23.20;14.10;;;2.60;99.90;;;3.49;100.00;98895.19;5089733;28;20193;-66
2021/12/08 08:11:32;;;;;;;22.13;13.07;;;2.60;99.90;;;3.59;100.00;98890.25;5090377;28;20239;-65
2021/12/08 08:14:01;;;;;;;21.67;14.03;;;2.70;99.90;;;3.67;100.00;98890.88;5089459;28;20242;-64
2021/12/08 08:16:42;;;;;;;22.30;12.30;;;2.80;99.90;;;3.72;100.00;98884.94;5089381;28;20187;-65
2021/12/08 08:19:17;;;;;;;21.60;13.30;;;2.80;99.90;;;3.74;100.00;98878.34;5089305;28;20185;-61
2021/12/08 08:21:52;;;;;;;20.30;12.53;;;2.80;99.90;;;3.78;100.00;98888.59;5089500;28;20223;-62
2021/12/08 08:24:21;;;;;;;20.53;13.03;;;2.90;99.90;;;3.82;100.00;98889.81;5089320;28;20224;-60
2021/12/08 08:26:54;;;;;;;18.43;12.10;;;2.90;99.90;;;3.82;100.00;98887.16;5089491;28;20202;-62
2021/12/08 08:29:23;;;;;;;21.57;13.10;;;3.00;99.90;;;4.09;100.00;98886.06;5089216;28;20269;-66
2021/12/08 08:32:01;;;;;;;17.77;11.73;;;3.10;99.90;;;3.93;100.00;98881.19;5088802;28;20280;-66
2021/12/08 08:34:36;;;;;;;20.80;12.47;;;3.10;99.90;;;4.05;100.00;98874.19;5088985;28;20249;-67
2021/12/08 08:37:13;;;;;;;19.77;11.90;;;3.10;99.90;;;4.18;100.00;98871.50;5089383;28;20577;-66
2021/12/08 08:39:45;;;;;;;17.80;12.53;;;3.20;99.90;;;4.37;100.00;98867.91;5089519;28;20217;-65
2021/12/08 08:42:19;;;;;;;19.27;12.50;;;3.30;99.90;;;4.26;100.00;98873.91;5089227;28;20321;-63
2021/12/08 08:44:54;;;;;;;17.20;12.10;;;3.40;99.90;;;4.45;100.00;98870.34;5088435;28;20567;-63
2021/12/08 08:47:29;;;;;;;20.00;12.00;;;3.40;99.90;;;4.41;100.00;98871.81;5089120;28;20193;-61
2021/12/08 08:49:57;;;;;;;20.30;11.40;;;3.50;99.90;;;4.51;100.00;98865.00;5092535;28;20266;-62
2021/12/08 08:52:32;;;;;;;19.57;12.87;;;3.50;99.90;;;4.69;100.00;98869.59;5093051;28;20595;-63
2021/12/08 08:55:10;;;;;;;16.20;11.60;;;3.60;99.90;;;4.52;100.00;98863.94;5092664;28;20225;-62
2021/12/08 08:57:42;;;;;;;17.60;11.07;;;3.60;99.90;;;4.70;100.00;98866.72;5092942;28;20194;-61
2021/12/08 09:00:18;;;;;;;17.97;11.50;;;3.70;99.90;;;4.91;100.00;98858.41;5093186;28;20240;-69
2021/12/08 09:02:52;;;;;;;15.70;11.13;;;3.70;99.90;;;4.79;100.00;98868.13;5093269;28;20208;-67
2021/12/08 09:05:30;;;;;;;18.83;11.37;;;3.80;99.90;;;4.79;100.00;98876.13;5093111;28;20233;-68
2021/12/08 09:08:17;;;;;;;14.43;10.63;;;3.90;99.90;;;4.98;100.00;98883.19;5092929;28;20193;-67
2021/12/08 09:10:53;;;;;;;18.53;10.83;;;3.90;99.90;;;4.80;100.00;98880.41;5093410;28;20187;-74
2021/12/08 09:13:27;;;;;;;15.30;10.40;;;3.90;99.90;;;4.69;100.00;98893.59;5081021;28;20596;-65
2021/12/08 09:16:02;;;;;;;18.93;11.83;;;3.90;99.90;;;5.03;100.00;98895.03;5072737;28;20214;-67
2021/12/08 09:18:48;;;;;;;15.67;10.83;;;3.90;99.90;;;4.89;100.00;98903.13;5072320;28;20339;-64
2021/12/08 09:21:29;;;;;;;15.00;10.53;;;3.90;99.90;;;4.73;100.00;98909.00;5072220;28;20267;-64
2021/12/08 09:24:06;;;;;;;14.23;10.07;;;3.90;99.90;;;4.65;100.00;98909.22;5071770;28;20295;-59
2021/12/08 09:26:39;;;;;;;16.20;10.50;;;3.80;99.90;;;4.61;100.00;98897.34;5072011;28;20187;-64
2021/12/08 09:29:13;;;;;;;16.93;10.43;;;3.80;99.90;;;4.66;100.00;98894.03;5072212;28;20185;-70
2021/12/08 09:31:47;;;;;;;15.70;10.27;;;3.90;99.90;;;4.71;100.00;98889.72;5073130;28;20198;-75
2021/12/08 09:34:25;;;;;;;15.93;10.20;;;3.90;99.90;;;4.77;100.00;98888.84;5072608;28;20622;-76
2021/12/08 09:36:59;;;;;;;15.60;9.90;;;3.90;99.90;;;4.90;100.00;98882.63;5072377;28;20245;-74
2021/12/08 09:39:35;;;;;;;14.97;10.63;;;3.90;99.90;;;4.84;100.00;98875.47;5072921;28;20198;-72
2021/12/08 09:42:12;;;;;;;15.30;9.20;;;3.90;99.90;;;4.86;100.00;98868.91;5071356;28;20329;-63
2021/12/08 09:44:46;;;;;;;13.03;8.83;;;4.00;99.90;;;4.93;100.00;98852.84;5071504;28;20225;-62
2021/12/08 09:47:15;;;;;;;14.27;8.87;;;4.00;99.90;;;4.94;100.00;98841.94;5071222;28;20760;-60
2021/12/08 09:49:47;;;;;;;14.60;9.93;;;4.00;99.90;;;4.86;100.00;98838.72;5071365;28;20745;-59
2021/12/08 09:52:19;;;;;;;12.50;8.73;;;4.00;99.90;;;4.85;100.00;98839.75;5071392;28;20184;-60
2021/12/08 09:54:48;;;;;;;12.07;9.10;;;4.00;99.90;;;5.07;100.00;98829.53;5071189;28;20211;-60
2021/12/08 09:57:16;;;;;;;13.23;8.47;;;4.10;99.90;;;4.91;100.00;98837.06;5070982;28;20236;-60
2021/12/08 09:59:46;;;;;;;13.83;8.57;;;4.10;99.90;;;5.11;100.00;98833.44;5070036;28;20242;-61
2021/12/08 10:02:27;;;;;;;13.17;8.30;;;4.10;99.90;;;5.12;100.00;98822.53;5070990;28;20207;-68
2021/12/08 10:04:59;;;;;;;10.87;8.07;;;4.20;99.90;;;5.07;100.00;98824.22;5070861;28;20252;-68
2021/12/08 10:07:28;;;;;;;11.90;8.03;;;4.20;99.90;;;5.07;100.00;98806.34;5071230;28;20220;-64
2021/12/08 10:09:56;;;;;;;11.93;8.67;;;4.20;99.90;;;5.20;100.00;98805.41;5070752;28;20239;-55
2021/12/08 10:12:25;;;;;;;12.40;8.13;;;4.30;99.90;;;5.44;100.00;98820.59;5071637;28;20311;-56
2021/12/08 10:14:53;;;;;;;12.23;7.97;;;4.30;99.90;;;5.58;100.00;98814.09;5091236;28;20230;-54
2021/12/08 10:17:21;;;;;;;11.73;8.23;;;4.50;99.90;;;5.59;100.00;98813.88;5091343;28;20184;-64
2021/12/08 10:22:48;;;;;;;11.20;8.90;;;4.60;99.90;;;5.59;100.00;98803.19;5086369;27;21032;-67
2021/12/08 10:25:20;;;;;;;12.97;8.53;;;4.70;99.90;;;5.52;100.00;98794.44;5065953;28;20547;-66
2021/12/08 10:28:11;;;;;;;12.67;8.73;;;4.60;99.90;;;5.44;100.00;98802.72;5066527;28;20192;-67
2021/12/08 10:30:47;;;;;;;10.60;7.70;;;4.50;99.90;;;5.45;100.00;98796.34;5066504;28;20194;-66
2021/12/08 10:33:49;;;;;;;13.07;9.27;;;4.50;99.90;;;5.60;100.00;98793.31;5065625;28;20195;-66
2021/12/08 10:36:44;;;;;;;13.43;8.77;;;4.60;99.90;;;5.52;100.00;98799.78;5066028;28;20220;-66
2021/12/08 10:39:23;;;;;;;12.43;8.40;;;4.60;99.90;;;5.78;100.00;98804.03;5065885;28;20213;-66
2021/12/08 10:42:22;;;;;;;10.93;8.17;;;4.70;99.90;;;5.53;100.00;98814.75;5065838;28;20207;-66
2021/12/08 10:44:56;;;;;;;11.63;8.43;;;4.60;99.90;;;5.45;100.00;98815.03;5056552;28;20299;-65
2021/12/08 10:47:30;;;;;;;14.40;8.70;;;4.60;99.90;;;5.45;100.00;98817.72;5065848;28;20252;-64
2021/12/08 10:55:41;;;;;;;12.33;7.77;;;4.70;99.90;;;5.61;100.00;98808.31;5065728;28;20225;-65
2021/12/08 10:58:22;;;;;;;13.83;7.87;;;4.70;99.90;;;5.58;100.00;98811.44;5065275;28;20200;-64
2021/12/08 11:00:52;;;;;;;11.23;7.93;;;4.80;99.90;;;5.62;100.00;98809.94;5065577;28;20203;-66
2021/12/08 11:03:21;;;;;;;10.90;7.37;;;4.70;99.90;;;5.75;100.00;98817.84;5065299;28;20207;-62
2021/12/08 11:05:55;;;;;;;11.53;8.10;;;4.80;99.90;;;5.74;100.00;98817.00;5064806;28;20205;-64
2021/12/08 11:08:30;;;;;;;10.60;7.47;;;4.80;99.90;;;5.93;100.00;98804.50;5065480;28;20235;-62
2021/12/08 11:11:05;;;;;;;8.50;5.90;;;4.90;99.90;;;5.92;100.00;98800.19;5065161;28;20184;-62
2021/12/08 11:13:40;;;;;;;9.17;6.80;;;4.90;99.90;;;5.90;100.00;98791.59;5065372;28;20224;-63
2021/12/08 11:16:15;;;;;;;8.80;6.13;;;4.90;99.90;;;5.86;100.00;98795.75;5064944;28;20624;-63